»·PEaware :: N792VA KHND-KONT

N792VA :: KHND-KONT

FLIGHT INFORMATION

Flight Status: Arrived
Operator: Privately registered:
United States
More flights under this callsign
Pilot: Scott M. (16181)
Aircraft: Unknown
(P28U)
More flights by this aircraft type
Origin: KHND Henderson
United States
Destination: KONT Ontario Intl
United States
More flights between these airports :: More routes between these airports
Route:
File this flight plan on PilotEdge
Remarks:
Altitude:
(Current/Filed)
8,500ft
Speed:
(Current/Filed)
160kts
Departed: 26-Jun-18 04:58 PM
Arrived: 26-Jun-18 06:12 PM
Distance/Time
Traveled:
168nm/1:14
Distance/Time
To Go:
Arrived

Flight Plot

Page will automatically refresh every two minutes.

Flight plan parsing failed; only flown route is shown


Map Options




Map Legend


Flown Route
Filed Route
Departure Airport
Arrival Airport
Navaid (VOR, NDB)
Fix

Horizontal Profiles

Position Reports

Time Latitude Longitude Heading Altitude Ground
Speed
26-Jun-18 16:45 35.973117 -115.138230 0 2426ft 0kts
26-Jun-18 16:46 35.973117 -115.138230 0 2426ft 0kts
26-Jun-18 16:47 35.973117 -115.138230 0 2426ft 0kts
26-Jun-18 16:48 35.973117 -115.138230 0 2426ft 0kts
26-Jun-18 16:49 35.973117 -115.138230 0 2426ft 0kts
26-Jun-18 16:50 35.973117 -115.138230 0 2426ft 0kts
26-Jun-18 16:51 35.973117 -115.138230 0 2426ft 0kts
26-Jun-18 16:52 35.973117 -115.138230 0 2426ft 0kts
26-Jun-18 16:53 35.973252 -115.137997 86 2426ft 0kts
26-Jun-18 16:54 35.973493 -115.136962 15 2426ft 14kts
26-Jun-18 16:55 35.977690 -115.136395 1 2411ft 20kts
26-Jun-18 16:56 35.980794 -115.136144 61 2398ft 0kts
26-Jun-18 16:57 35.980634 -115.135404 149 2399ft 9kts
26-Jun-18 16:58 35.962061 -115.136043 174 2988ft 95kts
26-Jun-18 16:59 35.936116 -115.142511 212 4200ft 113kts
26-Jun-18 17:00 35.916088 -115.172986 227 5413ft 114kts
26-Jun-18 17:01 35.899751 -115.204337 219 6518ft 109kts
26-Jun-18 17:02 35.876444 -115.234613 222 5861ft 127kts
26-Jun-18 17:03 35.853724 -115.265304 222 5105ft 117kts
26-Jun-18 17:04 35.831168 -115.295586 222 5414ft 119kts
26-Jun-18 17:05 35.808903 -115.325751 222 6445ft 121kts
26-Jun-18 17:06 35.782368 -115.361303 224 6485ft 150kts
26-Jun-18 17:07 35.755537 -115.397611 223 6485ft 140kts
26-Jun-18 17:08 35.729207 -115.433013 224 6504ft 140kts
26-Jun-18 17:09 35.704022 -115.466821 223 7271ft 130kts
26-Jun-18 17:10 35.680045 -115.498864 224 8234ft 129kts
26-Jun-18 17:11 35.653586 -115.532491 223 8612ft 151kts
26-Jun-18 17:12 35.624277 -115.571041 225 8552ft 150kts
26-Jun-18 17:13 35.596433 -115.608138 225 8560ft 147kts
26-Jun-18 17:14 35.576812 -115.634321 225 8560ft 146kts
26-Jun-18 17:15 35.551209 -115.668486 224 8560ft 146kts
26-Jun-18 17:16 35.523573 -115.705333 224 8560ft 146kts
26-Jun-18 17:17 35.495736 -115.742411 224 8560ft 149kts
26-Jun-18 17:18 35.467597 -115.779857 224 8587ft 150kts
26-Jun-18 17:19 35.439077 -115.817762 224 8587ft 153kts
26-Jun-18 17:20 35.410045 -115.856296 224 8587ft 154kts
26-Jun-18 17:21 35.380922 -115.894910 224 8587ft 154kts
26-Jun-18 17:22 35.351714 -115.933588 224 8587ft 155kts
26-Jun-18 17:23 35.322320 -115.972472 224 8587ft 155kts
26-Jun-18 17:24 35.293037 -116.011163 224 8587ft 155kts
26-Jun-18 17:25 35.264515 -116.048804 224 8587ft 155kts
26-Jun-18 17:26 35.235143 -116.087525 224 8587ft 154kts
26-Jun-18 17:27 35.207145 -116.124418 224 8578ft 154kts
26-Jun-18 17:28 35.177899 -116.162868 224 8578ft 154kts
26-Jun-18 17:29 35.148824 -116.201066 224 8550ft 154kts
26-Jun-18 17:30 35.119845 -116.239099 224 8550ft 152kts
26-Jun-18 17:31 35.091074 -116.276794 224 8550ft 150kts
26-Jun-18 17:32 35.062812 -116.313811 225 8550ft 148kts
26-Jun-18 17:33 35.034658 -116.350658 225 8550ft 148kts
26-Jun-18 17:34 35.006631 -116.387288 225 8550ft 148kts
26-Jun-18 17:35 34.978580 -116.423906 225 8550ft 148kts
26-Jun-18 17:36 34.950462 -116.460573 225 8518ft 149kts
26-Jun-18 17:37 34.922199 -116.497378 225 8503ft 147kts
26-Jun-18 17:38 34.894532 -116.533370 226 8505ft 147kts
26-Jun-18 17:39 34.866748 -116.569490 226 8505ft 147kts
26-Jun-18 17:40 34.838750 -116.605852 226 8505ft 147kts
26-Jun-18 17:41 34.810860 -116.642030 226 8505ft 147kts
26-Jun-18 17:42 34.783260 -116.677791 225 8506ft 147kts
26-Jun-18 17:43 34.755220 -116.714087 225 8506ft 147kts
26-Jun-18 17:44 34.727025 -116.750500 226 8506ft 148kts
26-Jun-18 17:45 34.698859 -116.786943 226 8505ft 148kts
26-Jun-18 17:46 34.670531 -116.823504 225 8505ft 148kts
26-Jun-18 17:47 34.642116 -116.860118 224 8505ft 149kts
26-Jun-18 17:48 34.613424 -116.897042 224 8505ft 151kts
26-Jun-18 17:49 34.584424 -116.934318 223 8505ft 153kts
26-Jun-18 17:50 34.554656 -116.972391 228 8505ft 158kts
26-Jun-18 17:51 34.524966 -117.010630 227 8692ft 154kts
26-Jun-18 17:52 34.495210 -117.048765 227 8898ft 159kts
26-Jun-18 17:53 34.464691 -117.087950 224 8649ft 159kts
26-Jun-18 17:54 34.434592 -117.126429 224 7895ft 155kts
26-Jun-18 17:55 34.405705 -117.163369 223 6969ft 146kts
26-Jun-18 17:56 34.378397 -117.196406 221 6622ft 134kts
26-Jun-18 17:57 34.352572 -117.228689 222 6622ft 133kts
26-Jun-18 17:58 34.326910 -117.261299 223 6576ft 133kts
26-Jun-18 17:59 34.301715 -117.293311 224 6576ft 129kts
26-Jun-18 18:00 34.276793 -117.324949 225 6502ft 128kts
26-Jun-18 18:01 34.252506 -117.355771 226 6394ft 127kts
26-Jun-18 18:02 34.228733 -117.385916 225 5811ft 123kts
26-Jun-18 18:03 34.205442 -117.415040 221 5085ft 120kts
26-Jun-18 18:04 34.176786 -117.434743 210 4450ft 116kts
26-Jun-18 18:05 34.149802 -117.453742 213 4048ft 113kts
26-Jun-18 18:06 34.120588 -117.467128 193 3742ft 114kts
26-Jun-18 18:07 34.089088 -117.470915 188 3427ft 116kts
26-Jun-18 18:08 34.060633 -117.485673 230 2923ft 116kts
26-Jun-18 18:09 34.054515 -117.521271 270 2224ft 98kts
26-Jun-18 18:10 34.054929 -117.546387 266 1581ft 73kts
26-Jun-18 18:11 34.054965 -117.570707 267 1189ft 75kts
26-Jun-18 18:12 34.054903 -117.593423 274 918ft 37kts
26-Jun-18 18:13 34.054118 -117.598000 182 915ft 0kts
26-Jun-18 18:14 34.053838 -117.600951 269 914ft 13kts
26-Jun-18 18:15 34.052421 -117.602969 182 912ft 15kts
26-Jun-18 18:16 34.051294 -117.603039 266 907ft 0kts

Navigation Log

Ident Type
Flight plan parsing failed, navigation log unavailable